sensor_id;sensor_type;location;lat;lon;timestamp;temperature;humidity
18365;DHT22;9309;52.126;11.616;2023-12-28T00:01:41;7.20;71.90
18365;DHT22;9309;52.126;11.616;2023-12-28T00:04:08;7.10;72.20
18365;DHT22;9309;52.126;11.616;2023-12-28T00:06:34;7.10;71.90
18365;DHT22;9309;52.126;11.616;2023-12-28T00:09:01;7.10;71.60
18365;DHT22;9309;52.126;11.616;2023-12-28T00:11:27;7.10;70.90
18365;DHT22;9309;52.126;11.616;2023-12-28T00:13:54;7.10;70.30
18365;DHT22;9309;52.126;11.616;2023-12-28T00:16:21;7.20;69.00
18365;DHT22;9309;52.126;11.616;2023-12-28T00:18:48;7.20;68.30
18365;DHT22;9309;52.126;11.616;2023-12-28T00:21:15;7.50;66.70
18365;DHT22;9309;52.126;11.616;2023-12-28T00:23:41;7.70;65.30
18365;DHT22;9309;52.126;11.616;2023-12-28T00:26:08;7.70;65.20
18365;DHT22;9309;52.126;11.616;2023-12-28T00:28:34;7.80;64.60
18365;DHT22;9309;52.126;11.616;2023-12-28T00:31:02;7.80;64.20
18365;DHT22;9309;52.126;11.616;2023-12-28T00:33:28;7.70;64.40
18365;DHT22;9309;52.126;11.616;2023-12-28T00:35:57;7.70;63.80
18365;DHT22;9309;52.126;11.616;2023-12-28T00:38:24;7.60;64.20
18365;DHT22;9309;52.126;11.616;2023-12-28T00:40:50;7.60;64.60
18365;DHT22;9309;52.126;11.616;2023-12-28T00:43:17;7.50;64.50
18365;DHT22;9309;52.126;11.616;2023-12-28T00:45:44;7.50;64.30
18365;DHT22;9309;52.126;11.616;2023-12-28T00:48:10;7.50;65.20
18365;DHT22;9309;52.126;11.616;2023-12-28T00:50:37;7.40;64.90
18365;DHT22;9309;52.126;11.616;2023-12-28T00:53:05;7.40;65.20
18365;DHT22;9309;52.126;11.616;2023-12-28T00:55:33;7.30;65.20
18365;DHT22;9309;52.126;11.616;2023-12-28T00:57:59;7.30;65.20
18365;DHT22;9309;52.126;11.616;2023-12-28T01:00:26;7.30;65.20
18365;DHT22;9309;52.126;11.616;2023-12-28T01:02:54;7.30;64.80
18365;DHT22;9309;52.126;11.616;2023-12-28T01:05:20;7.40;64.60
18365;DHT22;9309;52.126;11.616;2023-12-28T01:07:47;7.30;64.90
18365;DHT22;9309;52.126;11.616;2023-12-28T01:10:15;7.30;64.30
18365;DHT22;9309;52.126;11.616;2023-12-28T01:12:42;7.40;63.60
18365;DHT22;9309;52.126;11.616;2023-12-28T01:15:09;7.40;63.60
18365;DHT22;9309;52.126;11.616;2023-12-28T01:17:35;7.40;63.10
18365;DHT22;9309;52.126;11.616;2023-12-28T01:20:03;7.60;62.80
18365;DHT22;9309;52.126;11.616;2023-12-28T01:22:31;7.70;60.80
18365;DHT22;9309;52.126;11.616;2023-12-28T01:24:58;8.00;59.20
18365;DHT22;9309;52.126;11.616;2023-12-28T01:27:26;8.30;57.40
18365;DHT22;9309;52.126;11.616;2023-12-28T01:29:54;8.40;57.40
18365;DHT22;9309;52.126;11.616;2023-12-28T01:32:21;8.50;56.50
18365;DHT22;9309;52.126;11.616;2023-12-28T01:34:47;8.60;55.90
18365;DHT22;9309;52.126;11.616;2023-12-28T01:37:14;8.70;55.30
18365;DHT22;9309;52.126;11.616;2023-12-28T01:39:40;8.70;55.00
18365;DHT22;9309;52.126;11.616;2023-12-28T01:42:07;8.80;54.80
18365;DHT22;9309;52.126;11.616;2023-12-28T01:44:35;8.80;55.00
18365;DHT22;9309;52.126;11.616;2023-12-28T01:47:01;8.80;55.00
18365;DHT22;9309;52.126;11.616;2023-12-28T01:49:28;8.80;55.20
18365;DHT22;9309;52.126;11.616;2023-12-28T01:51:55;8.80;55.30
18365;DHT22;9309;52.126;11.616;2023-12-28T01:54:21;8.80;55.00
18365;DHT22;9309;52.126;11.616;2023-12-28T01:56:48;8.70;55.40
18365;DHT22;9309;52.126;11.616;2023-12-28T01:59:15;8.80;55.30
18365;DHT22;9309;52.126;11.616;2023-12-28T02:01:43;8.80;55.60
18365;DHT22;9309;52.126;11.616;2023-12-28T02:04:10;8.70;56.00
18365;DHT22;9309;52.126;11.616;2023-12-28T02:06:37;8.90;55.50
18365;DHT22;9309;52.126;11.616;2023-12-28T02:09:03;8.90;55.30
18365;DHT22;9309;52.126;11.616;2023-12-28T02:11:30;8.90;55.80
18365;DHT22;9309;52.126;11.616;2023-12-28T02:13:56;8.70;56.50
18365;DHT22;9309;52.126;11.616;2023-12-28T02:16:25;8.80;56.20
18365;DHT22;9309;52.126;11.616;2023-12-28T02:18:53;8.70;56.50
18365;DHT22;9309;52.126;11.616;2023-12-28T02:21:20;8.80;56.20
18365;DHT22;9309;52.126;11.616;2023-12-28T02:23:48;8.80;56.40
18365;DHT22;9309;52.126;11.616;2023-12-28T02:26:16;8.70;57.40
18365;DHT22;9309;52.126;11.616;2023-12-28T02:28:43;8.70;57.50
18365;DHT22;9309;52.126;11.616;2023-12-28T02:31:17;8.80;57.20
18365;DHT22;9309;52.126;11.616;2023-12-28T02:33:49;8.90;57.30
18365;DHT22;9309;52.126;11.616;2023-12-28T02:36:19;9.00;57.10
18365;DHT22;9309;52.126;11.616;2023-12-28T02:38:48;8.90;57.60
18365;DHT22;9309;52.126;11.616;2023-12-28T02:41:17;8.90;58.00
18365;DHT22;9309;52.126;11.616;2023-12-28T02:43:44;8.90;58.10
18365;DHT22;9309;52.126;11.616;2023-12-28T02:46:13;9.00;58.30
18365;DHT22;9309;52.126;11.616;2023-12-28T02:48:39;9.10;58.10
18365;DHT22;9309;52.126;11.616;2023-12-28T02:53:54;9.00;58.90
18365;DHT22;9309;52.126;11.616;2023-12-28T02:56:22;8.90;59.20
18365;DHT22;9309;52.126;11.616;2023-12-28T02:58:49;8.90;59.50
18365;DHT22;9309;52.126;11.616;2023-12-28T03:01:15;9.00;59.50
18365;DHT22;9309;52.126;11.616;2023-12-28T03:03:42;9.00;59.90
18365;DHT22;9309;52.126;11.616;2023-12-28T03:06:08;8.90;60.30
18365;DHT22;9309;52.126;11.616;2023-12-28T03:08:35;8.90;60.90
18365;DHT22;9309;52.126;11.616;2023-12-28T03:11:01;8.80;61.80
18365;DHT22;9309;52.126;11.616;2023-12-28T03:13:29;8.60;62.80
18365;DHT22;9309;52.126;11.616;2023-12-28T03:15:57;8.60;63.20
18365;DHT22;9309;52.126;11.616;2023-12-28T03:18:23;8.80;63.20
18365;DHT22;9309;52.126;11.616;2023-12-28T03:20:51;9.00;63.10
18365;DHT22;9309;52.126;11.616;2023-12-28T03:23:18;8.90;63.50
18365;DHT22;9309;52.126;11.616;2023-12-28T03:25:44;8.80;64.20
18365;DHT22;9309;52.126;11.616;2023-12-28T03:28:11;8.90;64.80
18365;DHT22;9309;52.126;11.616;2023-12-28T03:30:39;8.70;65.50
18365;DHT22;9309;52.126;11.616;2023-12-28T03:33:06;8.80;65.60
18365;DHT22;9309;52.126;11.616;2023-12-28T03:35:33;8.90;65.70
18365;DHT22;9309;52.126;11.616;2023-12-28T03:38:00;9.00;66.20
18365;DHT22;9309;52.126;11.616;2023-12-28T03:40:26;8.90;67.60
18365;DHT22;9309;52.126;11.616;2023-12-28T03:42:53;9.00;68.20
18365;DHT22;9309;52.126;11.616;2023-12-28T03:45:20;9.20;68.10
18365;DHT22;9309;52.126;11.616;2023-12-28T03:47:48;9.30;68.30
18365;DHT22;9309;52.126;11.616;2023-12-28T03:50:16;9.20;68.90
18365;DHT22;9309;52.126;11.616;2023-12-28T03:52:43;9.30;69.10
18365;DHT22;9309;52.126;11.616;2023-12-28T03:55:10;9.30;69.40
18365;DHT22;9309;52.126;11.616;2023-12-28T03:57:37;9.30;69.80
18365;DHT22;9309;52.126;11.616;2023-12-28T04:00:04;9.40;69.60
18365;DHT22;9309;52.126;11.616;2023-12-28T04:02:38;9.30;70.30
18365;DHT22;9309;52.126;11.616;2023-12-28T04:05:06;9.40;70.20
18365;DHT22;9309;52.126;11.616;2023-12-28T04:07:33;9.30;70.60
18365;DHT22;9309;52.126;11.616;2023-12-28T04:09:59;9.20;71.50
18365;DHT22;9309;52.126;11.616;2023-12-28T04:12:26;9.20;71.50
18365;DHT22;9309;52.126;11.616;2023-12-28T04:14:53;9.20;71.80
18365;DHT22;9309;52.126;11.616;2023-12-28T04:17:20;9.30;71.70
18365;DHT22;9309;52.126;11.616;2023-12-28T04:19:46;9.30;71.90
18365;DHT22;9309;52.126;11.616;2023-12-28T04:22:14;9.20;72.30
18365;DHT22;9309;52.126;11.616;2023-12-28T04:24:41;9.40;71.70
18365;DHT22;9309;52.126;11.616;2023-12-28T04:27:07;9.30;72.00
18365;DHT22;9309;52.126;11.616;2023-12-28T04:29:34;9.20;72.60
18365;DHT22;9309;52.126;11.616;2023-12-28T04:32:01;9.10;73.20
18365;DHT22;9309;52.126;11.616;2023-12-28T04:34:28;9.10;73.10
18365;DHT22;9309;52.126;11.616;2023-12-28T04:36:55;9.10;73.30
18365;DHT22;9309;52.126;11.616;2023-12-28T04:39:23;8.90;74.10
18365;DHT22;9309;52.126;11.616;2023-12-28T04:41:50;8.80;74.80
18365;DHT22;9309;52.126;11.616;2023-12-28T04:44:16;8.80;74.60
18365;DHT22;9309;52.126;11.616;2023-12-28T04:46:44;8.70;75.10
18365;DHT22;9309;52.126;11.616;2023-12-28T04:49:11;8.60;75.50
18365;DHT22;9309;52.126;11.616;2023-12-28T04:51:41;8.70;75.40
18365;DHT22;9309;52.126;11.616;2023-12-28T04:54:08;8.60;75.80
18365;DHT22;9309;52.126;11.616;2023-12-28T04:56:36;8.70;75.50
18365;DHT22;9309;52.126;11.616;2023-12-28T04:59:02;8.60;76.20
18365;DHT22;9309;52.126;11.616;2023-12-28T05:01:29;8.60;76.60
18365;DHT22;9309;52.126;11.616;2023-12-28T05:03:56;8.70;76.30
18365;DHT22;9309;52.126;11.616;2023-12-28T05:06:23;8.70;76.10
18365;DHT22;9309;52.126;11.616;2023-12-28T05:08:50;8.60;76.40
18365;DHT22;9309;52.126;11.616;2023-12-28T05:11:16;8.50;76.90
18365;DHT22;9309;52.126;11.616;2023-12-28T05:13:44;8.50;77.10
18365;DHT22;9309;52.126;11.616;2023-12-28T05:16:11;8.40;77.90
18365;DHT22;9309;52.126;11.616;2023-12-28T05:18:37;8.30;77.90
18365;DHT22;9309;52.126;11.616;2023-12-28T05:21:04;8.20;78.30
18365;DHT22;9309;52.126;11.616;2023-12-28T05:23:31;8.30;78.10
18365;DHT22;9309;52.126;11.616;2023-12-28T05:25:57;8.20;78.30
18365;DHT22;9309;52.126;11.616;2023-12-28T05:28:24;8.20;78.50
18365;DHT22;9309;52.126;11.616;2023-12-28T05:30:52;8.10;79.00
18365;DHT22;9309;52.126;11.616;2023-12-28T05:33:18;7.90;79.80
18365;DHT22;9309;52.126;11.616;2023-12-28T05:35:45;7.90;80.10
18365;DHT22;9309;52.126;11.616;2023-12-28T05:38:11;7.90;80.30
18365;DHT22;9309;52.126;11.616;2023-12-28T05:40:38;7.90;80.30
18365;DHT22;9309;52.126;11.616;2023-12-28T05:43:05;7.90;80.50
18365;DHT22;9309;52.126;11.616;2023-12-28T05:45:31;7.80;80.50
18365;DHT22;9309;52.126;11.616;2023-12-28T05:47:59;7.90;80.60
18365;DHT22;9309;52.126;11.616;2023-12-28T05:50:26;7.80;80.70
18365;DHT22;9309;52.126;11.616;2023-12-28T05:52:52;7.80;81.00
18365;DHT22;9309;52.126;11.616;2023-12-28T05:55:19;7.90;81.00
18365;DHT22;9309;52.126;11.616;2023-12-28T05:57:45;7.90;80.80
18365;DHT22;9309;52.126;11.616;2023-12-28T06:00:13;7.90;80.60
18365;DHT22;9309;52.126;11.616;2023-12-28T06:02:40;7.80;81.00
18365;DHT22;9309;52.126;11.616;2023-12-28T06:05:08;7.80;80.90
18365;DHT22;9309;52.126;11.616;2023-12-28T06:07:34;7.80;81.00
18365;DHT22;9309;52.126;11.616;2023-12-28T06:10:01;7.90;80.80
18365;DHT22;9309;52.126;11.616;2023-12-28T06:12:28;8.00;80.00
18365;DHT22;9309;52.126;11.616;2023-12-28T06:14:54;7.90;80.40
18365;DHT22;9309;52.126;11.616;2023-12-28T06:17:21;7.90;80.70
18365;DHT22;9309;52.126;11.616;2023-12-28T06:19:47;7.90;80.20
18365;DHT22;9309;52.126;11.616;2023-12-28T06:22:16;8.00;80.00
18365;DHT22;9309;52.126;11.616;2023-12-28T06:24:43;7.90;80.20
18365;DHT22;9309;52.126;11.616;2023-12-28T06:27:10;7.90;80.30
18365;DHT22;9309;52.126;11.616;2023-12-28T06:29:36;7.80;80.70
18365;DHT22;9309;52.126;11.616;2023-12-28T06:32:03;7.90;80.60
18365;DHT22;9309;52.126;11.616;2023-12-28T06:34:30;8.00;79.90
18365;DHT22;9309;52.126;11.616;2023-12-28T06:36:56;8.20;79.20
18365;DHT22;9309;52.126;11.616;2023-12-28T06:39:24;8.20;78.70
18365;DHT22;9309;52.126;11.616;2023-12-28T06:41:51;8.30;78.20
18365;DHT22;9309;52.126;11.616;2023-12-28T06:44:17;8.20;78.50
18365;DHT22;9309;52.126;11.616;2023-12-28T06:46:44;8.10;79.10
18365;DHT22;9309;52.126;11.616;2023-12-28T06:49:10;8.00;79.30
18365;DHT22;9309;52.126;11.616;2023-12-28T06:51:37;8.00;79.60
18365;DHT22;9309;52.126;11.616;2023-12-28T06:54:04;8.00;79.20
18365;DHT22;9309;52.126;11.616;2023-12-28T06:56:32;7.90;79.70
18365;DHT22;9309;52.126;11.616;2023-12-28T06:59:06;7.80;80.10
18365;DHT22;9309;52.126;11.616;2023-12-28T07:01:37;7.80;80.10
18365;DHT22;9309;52.126;11.616;2023-12-28T07:04:05;7.80;80.20
18365;DHT22;9309;52.126;11.616;2023-12-28T07:06:42;7.80;80.50
18365;DHT22;9309;52.126;11.616;2023-12-28T07:09:24;7.80;80.30
18365;DHT22;9309;52.126;11.616;2023-12-28T07:11:52;7.80;80.20
18365;DHT22;9309;52.126;11.616;2023-12-28T07:14:18;7.70;80.60
18365;DHT22;9309;52.126;11.616;2023-12-28T07:16:45;7.80;80.20
18365;DHT22;9309;52.126;11.616;2023-12-28T07:19:11;7.80;80.30
18365;DHT22;9309;52.126;11.616;2023-12-28T07:21:38;7.60;80.70
18365;DHT22;9309;52.126;11.616;2023-12-28T07:24:05;7.60;81.00
18365;DHT22;9309;52.126;11.616;2023-12-28T07:26:32;7.60;81.20
18365;DHT22;9309;52.126;11.616;2023-12-28T07:29:00;7.60;80.90
18365;DHT22;9309;52.126;11.616;2023-12-28T07:31:27;7.60;81.00
18365;DHT22;9309;52.126;11.616;2023-12-28T07:33:55;7.60;81.20
18365;DHT22;9309;52.126;11.616;2023-12-28T07:36:21;7.60;81.10
18365;DHT22;9309;52.126;11.616;2023-12-28T07:38:48;7.70;80.60
18365;DHT22;9309;52.126;11.616;2023-12-28T07:41:14;7.80;80.10
18365;DHT22;9309;52.126;11.616;2023-12-28T07:43:47;7.80;80.00
18365;DHT22;9309;52.126;11.616;2023-12-28T07:46:15;7.80;80.00
18365;DHT22;9309;52.126;11.616;2023-12-28T07:48:42;7.90;79.60
18365;DHT22;9309;52.126;11.616;2023-12-28T07:51:08;7.80;80.00
18365;DHT22;9309;52.126;11.616;2023-12-28T07:53:35;7.70;80.70
18365;DHT22;9309;52.126;11.616;2023-12-28T07:56:02;7.70;80.50
18365;DHT22;9309;52.126;11.616;2023-12-28T07:58:28;7.80;79.80
18365;DHT22;9309;52.126;11.616;2023-12-28T08:00:55;7.80;80.20
18365;DHT22;9309;52.126;11.616;2023-12-28T08:03:22;7.80;79.90
18365;DHT22;9309;52.126;11.616;2023-12-28T08:05:48;7.70;80.10
18365;DHT22;9309;52.126;11.616;2023-12-28T08:08:15;7.70;80.40
18365;DHT22;9309;52.126;11.616;2023-12-28T08:10:42;7.80;80.10
18365;DHT22;9309;52.126;11.616;2023-12-28T08:13:08;7.90;79.70
18365;DHT22;9309;52.126;11.616;2023-12-28T08:15:35;7.90;79.70
18365;DHT22;9309;52.126;11.616;2023-12-28T08:18:01;7.80;79.50
18365;DHT22;9309;52.126;11.616;2023-12-28T08:20:29;7.90;79.30
18365;DHT22;9309;52.126;11.616;2023-12-28T08:22:56;7.90;79.10
18365;DHT22;9309;52.126;11.616;2023-12-28T08:25:22;7.90;79.20
18365;DHT22;9309;52.126;11.616;2023-12-28T08:27:49;8.00;78.80
18365;DHT22;9309;52.126;11.616;2023-12-28T08:30:15;8.00;79.00
18365;DHT22;9309;52.126;11.616;2023-12-28T08:32:42;8.10;78.40
18365;DHT22;9309;52.126;11.616;2023-12-28T08:35:09;8.20;77.70
18365;DHT22;9309;52.126;11.616;2023-12-28T08:37:36;8.40;76.70
18365;DHT22;9309;52.126;11.616;2023-12-28T08:40:03;8.30;76.90
18365;DHT22;9309;52.126;11.616;2023-12-28T08:42:30;8.30;76.90
18365;DHT22;9309;52.126;11.616;2023-12-28T08:44:57;8.50;76.00
18365;DHT22;9309;52.126;11.616;2023-12-28T08:47:23;8.40;76.30
18365;DHT22;9309;52.126;11.616;2023-12-28T08:49:50;8.40;76.40
18365;DHT22;9309;52.126;11.616;2023-12-28T08:52:16;8.40;76.00
18365;DHT22;9309;52.126;11.616;2023-12-28T08:54:45;8.40;76.20
18365;DHT22;9309;52.126;11.616;2023-12-28T08:57:11;8.60;75.50
18365;DHT22;9309;52.126;11.616;2023-12-28T08:59:39;8.50;75.60
18365;DHT22;9309;52.126;11.616;2023-12-28T09:02:05;8.40;76.10
18365;DHT22;9309;52.126;11.616;2023-12-28T09:04:32;8.40;76.00
18365;DHT22;9309;52.126;11.616;2023-12-28T09:06:59;8.50;75.60
18365;DHT22;9309;52.126;11.616;2023-12-28T09:09:26;8.50;75.90
18365;DHT22;9309;52.126;11.616;2023-12-28T09:11:54;8.50;75.80
18365;DHT22;9309;52.126;11.616;2023-12-28T09:14:20;8.50;76.00
18365;DHT22;9309;52.126;11.616;2023-12-28T09:16:47;8.40;76.30
18365;DHT22;9309;52.126;11.616;2023-12-28T09:19:14;8.50;76.00
18365;DHT22;9309;52.126;11.616;2023-12-28T09:21:40;8.40;76.10
18365;DHT22;9309;52.126;11.616;2023-12-28T09:24:07;8.60;75.20
18365;DHT22;9309;52.126;11.616;2023-12-28T09:26:33;8.70;74.70
18365;DHT22;9309;52.126;11.616;2023-12-28T09:29:02;8.80;74.30
18365;DHT22;9309;52.126;11.616;2023-12-28T09:31:28;8.90;73.70
18365;DHT22;9309;52.126;11.616;2023-12-28T09:33:55;9.30;72.10
18365;DHT22;9309;52.126;11.616;2023-12-28T09:36:21;9.30;71.60
18365;DHT22;9309;52.126;11.616;2023-12-28T09:38:48;9.40;71.40
18365;DHT22;9309;52.126;11.616;2023-12-28T09:41:16;9.50;70.80
18365;DHT22;9309;52.126;11.616;2023-12-28T09:43:45;9.50;70.40
18365;DHT22;9309;52.126;11.616;2023-12-28T09:46:14;9.40;70.50
18365;DHT22;9309;52.126;11.616;2023-12-28T09:48:41;9.60;70.00
18365;DHT22;9309;52.126;11.616;2023-12-28T09:51:07;9.70;69.50
18365;DHT22;9309;52.126;11.616;2023-12-28T09:53:36;10.30;68.00
18365;DHT22;9309;52.126;11.616;2023-12-28T09:56:03;10.40;66.90
18365;DHT22;9309;52.126;11.616;2023-12-28T09:58:32;10.10;67.80
18365;DHT22;9309;52.126;11.616;2023-12-28T10:00:59;9.70;69.10
18365;DHT22;9309;52.126;11.616;2023-12-28T10:03:28;9.70;69.60
18365;DHT22;9309;52.126;11.616;2023-12-28T10:05:54;9.60;69.80
18365;DHT22;9309;52.126;11.616;2023-12-28T10:08:21;9.60;69.70
18365;DHT22;9309;52.126;11.616;2023-12-28T10:10:50;9.60;70.10
18365;DHT22;9309;52.126;11.616;2023-12-28T10:13:20;9.60;70.00
18365;DHT22;9309;52.126;11.616;2023-12-28T10:15:47;9.60;70.30
18365;DHT22;9309;52.126;11.616;2023-12-28T10:18:17;9.90;69.60
18365;DHT22;9309;52.126;11.616;2023-12-28T10:20:49;10.10;68.80
18365;DHT22;9309;52.126;11.616;2023-12-28T10:23:16;10.10;68.50
18365;DHT22;9309;52.126;11.616;2023-12-28T10:25:42;10.00;68.60
18365;DHT22;9309;52.126;11.616;2023-12-28T10:28:10;10.00;69.10
18365;DHT22;9309;52.126;11.616;2023-12-28T10:30:38;9.90;68.90
18365;DHT22;9309;52.126;11.616;2023-12-28T10:33:05;9.90;68.60
18365;DHT22;9309;52.126;11.616;2023-12-28T10:35:32;10.10;68.00
18365;DHT22;9309;52.126;11.616;2023-12-28T10:38:01;10.40;66.70
18365;DHT22;9309;52.126;11.616;2023-12-28T10:40:29;10.60;66.00
18365;DHT22;9309;52.126;11.616;2023-12-28T10:42:57;10.40;65.90
18365;DHT22;9309;52.126;11.616;2023-12-28T10:45:28;10.40;66.00
18365;DHT22;9309;52.126;11.616;2023-12-28T10:48:04;10.40;66.30
18365;DHT22;9309;52.126;11.616;2023-12-28T10:50:35;10.40;66.40
18365;DHT22;9309;52.126;11.616;2023-12-28T10:53:15;10.50;66.10
18365;DHT22;9309;52.126;11.616;2023-12-28T10:55:51;10.40;66.10
18365;DHT22;9309;52.126;11.616;2023-12-28T10:58:27;10.40;66.30
18365;DHT22;9309;52.126;11.616;2023-12-28T11:01:01;10.50;66.20
18365;DHT22;9309;52.126;11.616;2023-12-28T11:03:34;10.60;66.00
18365;DHT22;9309;52.126;11.616;2023-12-28T11:06:03;10.60;65.90
18365;DHT22;9309;52.126;11.616;2023-12-28T11:08:32;10.60;65.80
18365;DHT22;9309;52.126;11.616;2023-12-28T11:11:01;10.60;66.30
18365;DHT22;9309;52.126;11.616;2023-12-28T11:13:30;10.60;66.00
18365;DHT22;9309;52.126;11.616;2023-12-28T11:15:58;10.50;66.20
18365;DHT22;9309;52.126;11.616;2023-12-28T11:18:26;10.50;66.40
18365;DHT22;9309;52.126;11.616;2023-12-28T11:20:54;10.50;66.50
18365;DHT22;9309;52.126;11.616;2023-12-28T11:23:21;10.40;67.30
18365;DHT22;9309;52.126;11.616;2023-12-28T11:25:49;10.30;67.90
18365;DHT22;9309;52.126;11.616;2023-12-28T11:28:16;10.40;67.90
18365;DHT22;9309;52.126;11.616;2023-12-28T11:30:43;10.60;67.60
18365;DHT22;9309;52.126;11.616;2023-12-28T11:33:10;10.70;66.80
18365;DHT22;9309;52.126;11.616;2023-12-28T11:35:39;10.80;66.50
18365;DHT22;9309;52.126;11.616;2023-12-28T11:38:08;10.90;66.40
18365;DHT22;9309;52.126;11.616;2023-12-28T11:40:40;11.00;66.10
18365;DHT22;9309;52.126;11.616;2023-12-28T11:43:18;11.10;65.50
18365;DHT22;9309;52.126;11.616;2023-12-28T11:45:49;11.20;65.50
18365;DHT22;9309;52.126;11.616;2023-12-28T11:48:27;11.40;64.10
18365;DHT22;9309;52.126;11.616;2023-12-28T11:50:55;11.50;63.40
18365;DHT22;9309;52.126;11.616;2023-12-28T11:53:22;11.50;63.40
18365;DHT22;9309;52.126;11.616;2023-12-28T11:55:50;11.50;63.40
18365;DHT22;9309;52.126;11.616;2023-12-28T11:58:18;11.60;63.10
18365;DHT22;9309;52.126;11.616;2023-12-28T12:00:45;11.60;63.40
18365;DHT22;9309;52.126;11.616;2023-12-28T12:03:12;11.60;63.30
18365;DHT22;9309;52.126;11.616;2023-12-28T12:05:39;11.70;63.00
18365;DHT22;9309;52.126;11.616;2023-12-28T12:08:06;11.50;63.70
18365;DHT22;9309;52.126;11.616;2023-12-28T12:10:34;11.60;63.60
18365;DHT22;9309;52.126;11.616;2023-12-28T12:13:01;11.70;63.30
18365;DHT22;9309;52.126;11.616;2023-12-28T12:15:31;11.50;63.90
18365;DHT22;9309;52.126;11.616;2023-12-28T12:17:58;11.50;63.40
18365;DHT22;9309;52.126;11.616;2023-12-28T12:20:25;11.50;63.30
18365;DHT22;9309;52.126;11.616;2023-12-28T12:22:57;11.20;64.60
18365;DHT22;9309;52.126;11.616;2023-12-28T12:25:24;11.30;64.50
18365;DHT22;9309;52.126;11.616;2023-12-28T12:27:51;11.10;64.90
18365;DHT22;9309;52.126;11.616;2023-12-28T12:30:18;11.20;64.60
18365;DHT22;9309;52.126;11.616;2023-12-28T12:32:48;11.20;64.80
18365;DHT22;9309;52.126;11.616;2023-12-28T12:35:15;11.10;64.70
18365;DHT22;9309;52.126;11.616;2023-12-28T12:37:43;11.00;65.20
18365;DHT22;9309;52.126;11.616;2023-12-28T12:40:12;11.10;65.20
18365;DHT22;9309;52.126;11.616;2023-12-28T12:42:39;11.20;63.80
18365;DHT22;9309;52.126;11.616;2023-12-28T12:45:08;11.30;63.60
18365;DHT22;9309;52.126;11.616;2023-12-28T12:47:35;11.10;63.70
18365;DHT22;9309;52.126;11.616;2023-12-28T12:50:03;11.30;63.50
18365;DHT22;9309;52.126;11.616;2023-12-28T12:52:30;11.30;62.90
18365;DHT22;9309;52.126;11.616;2023-12-28T12:54:57;11.40;62.30
18365;DHT22;9309;52.126;11.616;2023-12-28T12:57:24;11.40;62.70
18365;DHT22;9309;52.126;11.616;2023-12-28T12:59:52;11.50;62.80
18365;DHT22;9309;52.126;11.616;2023-12-28T13:02:18;11.50;62.40
18365;DHT22;9309;52.126;11.616;2023-12-28T13:04:45;11.50;63.10
18365;DHT22;9309;52.126;11.616;2023-12-28T13:07:13;11.30;63.60
18365;DHT22;9309;52.126;11.616;2023-12-28T13:09:40;11.40;62.80
18365;DHT22;9309;52.126;11.616;2023-12-28T13:12:07;11.50;62.30
18365;DHT22;9309;52.126;11.616;2023-12-28T13:14:34;11.50;62.80
18365;DHT22;9309;52.126;11.616;2023-12-28T13:17:01;11.40;62.60
18365;DHT22;9309;52.126;11.616;2023-12-28T13:19:27;11.30;64.20
18365;DHT22;9309;52.126;11.616;2023-12-28T13:21:54;11.30;63.70
18365;DHT22;9309;52.126;11.616;2023-12-28T13:24:22;11.20;64.20
18365;DHT22;9309;52.126;11.616;2023-12-28T13:26:49;11.10;65.00
18365;DHT22;9309;52.126;11.616;2023-12-28T13:29:15;11.10;65.10
18365;DHT22;9309;52.126;11.616;2023-12-28T13:31:42;11.10;64.60
18365;DHT22;9309;52.126;11.616;2023-12-28T13:34:10;11.10;65.00
18365;DHT22;9309;52.126;11.616;2023-12-28T13:36:36;11.10;64.60
18365;DHT22;9309;52.126;11.616;2023-12-28T13:39:03;11.20;64.00
18365;DHT22;9309;52.126;11.616;2023-12-28T13:41:32;11.40;63.50
18365;DHT22;9309;52.126;11.616;2023-12-28T13:43:59;11.40;63.40
18365;DHT22;9309;52.126;11.616;2023-12-28T13:46:30;11.20;63.90
18365;DHT22;9309;52.126;11.616;2023-12-28T13:48:57;11.20;63.80
18365;DHT22;9309;52.126;11.616;2023-12-28T13:51:23;11.20;64.00
18365;DHT22;9309;52.126;11.616;2023-12-28T13:53:50;11.30;62.80
18365;DHT22;9309;52.126;11.616;2023-12-28T13:56:16;11.40;62.30
18365;DHT22;9309;52.126;11.616;2023-12-28T13:58:44;11.40;62.70
18365;DHT22;9309;52.126;11.616;2023-12-28T14:01:11;11.30;63.10
18365;DHT22;9309;52.126;11.616;2023-12-28T14:03:38;11.30;63.10
18365;DHT22;9309;52.126;11.616;2023-12-28T14:06:05;11.30;63.80
18365;DHT22;9309;52.126;11.616;2023-12-28T14:08:32;11.20;64.20
18365;DHT22;9309;52.126;11.616;2023-12-28T14:10:58;11.20;64.40
18365;DHT22;9309;52.126;11.616;2023-12-28T14:13:25;11.10;64.50
18365;DHT22;9309;52.126;11.616;2023-12-28T14:15:53;11.10;64.40
18365;DHT22;9309;52.126;11.616;2023-12-28T14:18:20;11.00;65.00
18365;DHT22;9309;52.126;11.616;2023-12-28T14:20:46;11.00;64.90
18365;DHT22;9309;52.126;11.616;2023-12-28T14:23:13;10.90;64.60
18365;DHT22;9309;52.126;11.616;2023-12-28T14:25:39;10.90;64.80
18365;DHT22;9309;52.126;11.616;2023-12-28T14:28:06;10.60;65.50
18365;DHT22;9309;52.126;11.616;2023-12-28T14:30:33;10.60;65.90
18365;DHT22;9309;52.126;11.616;2023-12-28T14:33:02;10.60;65.90
18365;DHT22;9309;52.126;11.616;2023-12-28T14:35:28;10.60;65.90
18365;DHT22;9309;52.126;11.616;2023-12-28T14:37:55;10.40;66.20
18365;DHT22;9309;52.126;11.616;2023-12-28T14:40:22;10.30;66.00
18365;DHT22;9309;52.126;11.616;2023-12-28T14:42:48;10.30;66.40
18365;DHT22;9309;52.126;11.616;2023-12-28T14:45:15;10.30;66.60
18365;DHT22;9309;52.126;11.616;2023-12-28T14:47:40;10.20;66.70
18365;DHT22;9309;52.126;11.616;2023-12-28T14:50:08;10.20;66.90
18365;DHT22;9309;52.126;11.616;2023-12-28T14:52:35;10.20;66.60
18365;DHT22;9309;52.126;11.616;2023-12-28T14:55:03;10.10;66.90
18365;DHT22;9309;52.126;11.616;2023-12-28T14:57:30;10.00;67.40
18365;DHT22;9309;52.126;11.616;2023-12-28T14:59:56;9.90;67.50
18365;DHT22;9309;52.126;11.616;2023-12-28T15:02:23;10.00;67.00
18365;DHT22;9309;52.126;11.616;2023-12-28T15:04:50;9.90;67.10
18365;DHT22;9309;52.126;11.616;2023-12-28T15:07:18;9.80;67.70
18365;DHT22;9309;52.126;11.616;2023-12-28T15:09:44;9.80;67.90
18365;DHT22;9309;52.126;11.616;2023-12-28T15:12:11;9.80;67.60
18365;DHT22;9309;52.126;11.616;2023-12-28T15:14:39;9.90;67.60
18365;DHT22;9309;52.126;11.616;2023-12-28T15:17:06;9.70;68.20
18365;DHT22;9309;52.126;11.616;2023-12-28T15:19:33;9.60;68.60
18365;DHT22;9309;52.126;11.616;2023-12-28T15:21:59;9.50;69.10
18365;DHT22;9309;52.126;11.616;2023-12-28T15:24:27;9.50;69.30
18365;DHT22;9309;52.126;11.616;2023-12-28T15:26:54;9.40;69.60
18365;DHT22;9309;52.126;11.616;2023-12-28T15:29:21;9.40;69.80
18365;DHT22;9309;52.126;11.616;2023-12-28T15:31:47;9.40;69.60
18365;DHT22;9309;52.126;11.616;2023-12-28T15:34:14;9.40;69.90
18365;DHT22;9309;52.126;11.616;2023-12-28T15:36:41;9.30;70.20
18365;DHT22;9309;52.126;11.616;2023-12-28T15:39:08;9.30;70.30
18365;DHT22;9309;52.126;11.616;2023-12-28T15:41:35;9.30;70.20
18365;DHT22;9309;52.126;11.616;2023-12-28T15:44:02;9.30;70.30
18365;DHT22;9309;52.126;11.616;2023-12-28T15:46:30;9.30;70.40